Tonopah, Nevada
Current Conditions -  °F | °C
As of 1:56 AM on Saturday 25 Oct 2014 (Local Time) from KTPH Reporting Station
Clear Clear  
Wind Chill: 55°   Ceiling: Unl
Heat Index: 55°   Visibility: 10mi
Dew Point: 29°   Wind: 17mph
Humidity: 37%   Direction: 150°SSE
Pressure: 30.13"   Gusts: NA
Location:  38.07°N, 117.23°W
Report Text: KTPH 250856Z AUTO 15015KT 10SM CLR 13/M02 A3013 RMK AO2 SLP139 T01281017 56006
Loading
Personal Weather Stations






























Interactive Weather Map
Tropical Storm Tracking
New forecast layout! Learn more

10-Day Weather Forecast

Advertisements
Track Severe Weather on mobile